• Join FlightAware (Why Join?)
  • Login
  • US Flag 
01:53AM EDT


 

Airport Tracker/Info


-or-


 

Live Flight TrackerFlight Track Log ✈ ACA831 ✈ 12-Aug-2013 ✈ LSGG / GVA - CYUL

Flight Track Log - Related Links

Times and Time Zones

All times are in EDT time to prevent confusion due to time zone crossing. See the ACA831 flight status page for this flight to view local times or setup timezone preferences in your user account.

Time Position Orientation Groundspeed Altitude Reporting Facility
EDT Latitude Longitude Course Direction KTS MPH feet Rate Location/Type
06:24AM 46.2470 6.1220 270° West 96 110  Level FlightAware
06:24AM 46.2370 6.1080 224° Southwest 144 166 3,120 Level FlightAware
06:24AM 46.2250 6.0910 224° Southwest 181 208 2,100 4,500 Climbing FlightAware
06:25AM 46.2140 6.0750 225° Southwest 181 208 3,000 2,640 Climbing FlightAware
06:25AM 46.1990 6.0530 225° Southwest 184 212 4,100 2,400 Climbing FlightAware
06:25AM 46.1930 6.0440 226° Southwest 179 206 4,400 2,160 Climbing FlightAware
06:25AM 46.1810 6.0250 228° Southwest 186 214 5,200 2,100 Climbing FlightAware
06:26AM 46.1690 6.0080 224° Southwest 194 223 5,800 900 Climbing FlightAware
06:26AM 46.1510 5.9810 226° Southwest 238 274 5,900 900 Climbing FlightAware
06:27AM 46.1350 5.9570 226° Southwest 260 299 6,500 1,320 Climbing FlightAware
06:27AM 46.1220 5.9280 237° Southwest 274 315 6,800 960 Climbing FlightAware
06:27AM 46.1200 5.9190 252° West 275 316 6,900 1,800 Climbing FlightAware
06:27AM 46.1200 5.9090 270° West 277 319 7,100 1,560 Climbing FlightAware
06:27AM 46.1230 5.8920 284° West 276 318 7,300 1,680 Climbing FlightAware
06:27AM 46.1330 5.8650 298° West 274 315 7,800 2,100 Climbing FlightAware
06:28AM 46.1370 5.8580 310° West 275 316 8,000 2,400 Climbing FlightAware
06:28AM 46.1460 5.8500 328° Northwest 276 318 8,400 2,760 Climbing FlightAware
06:28AM 46.1530 5.8450 334° Northwest 276 318 8,700 3,600 Climbing FlightAware
06:28AM 46.1780 5.8340 343° North 273 314 9,900 2,280 Climbing FlightAware
06:29AM 46.2240 5.8160 345° North 316 364 10,800 1,440 Climbing FlightAware
06:29AM 46.2780 5.7960 346° North 351 404 11,600 1,320 Climbing FlightAware
06:30AM 46.3380 5.7720 345° North 389 448 12,400 1,620 Climbing FlightAware
06:30AM 46.4000 5.7470 344° North 419 482 13,500 2,460 Climbing FlightAware
06:31AM 46.4670 5.7200 344° North 420 483 15,300 2,700 Climbing FlightAware
06:32AM 46.5330 5.6950 345° North 432 497 16,700 2,400 Climbing FlightAware
06:32AM 46.6040 5.6690 346° North 432 497 18,300 2,460 Climbing FlightAware
06:33AM 46.6710 5.6450 346° North 448 516 19,600 2,220 Climbing FlightAware
06:33AM 46.7450 5.6190 346° North 457 526 20,800 1,920 Climbing FlightAware
06:34AM 46.8050 5.5930 343° North 457 526 21,700 1,980 Climbing FlightAware
06:34AM 46.8300 5.5700 328° Northwest 453 521 22,200 1,800 Climbing FlightAware
06:35AM 46.8860 5.5020 320° Northwest 462 532 23,200 1,800 Climbing FlightAware
06:35AM 46.9500 5.4350 324° Northwest 467 537 24,400 1,800 Climbing FlightAware
06:36AM 47.0080 5.3750 325° Northwest 473 544 25,300 1,980 Climbing FlightAware
06:36AM 47.0700 5.3110 325° Northwest 470 541 26,700 2,640 Climbing FlightAware
06:37AM 47.1370 5.2440 326° Northwest 455 524 28,600 2,520 Climbing FlightAware
06:38AM 47.1950 5.1890 327° Northwest 449 517 29,700 1,260 Climbing FlightAware
06:38AM 47.2510 5.1260 323° Northwest 440 506 30,000 240 Climbing FlightAware
06:39AM 47.3090 5.0550 320° Northwest 434 499 30,000  Level FlightAware
06:39AM 47.3640 4.9850 319° Northwest 434 499 30,000  Level FlightAware
06:40AM 47.4090 4.9270 319° Northwest 436 502 30,000  Level FlightAware
06:41AM 47.4600 4.8610 319° Northwest 438 504 30,000  Level FlightAware
06:41AM 47.5140 4.7920 319° Northwest 440 506 30,000  Level FlightAware
06:42AM 47.5690 4.7200 319° Northwest 441 507 30,000  Level FlightAware
06:42AM 47.6240 4.6500 319° Northwest 441 507 30,000  Level FlightAware
06:43AM 47.6750 4.5830 319° Northwest 441 507 30,000  Level FlightAware
06:43AM 47.7300 4.5120 319° Northwest 441 507 30,000  Level FlightAware
06:44AM 47.7860 4.4390 319° Northwest 440 506 30,000  Level FlightAware
06:45AM 47.8390 4.3700 319° Northwest 439 505 30,000  Level FlightAware
06:45AM 47.8910 4.3010 318° Northwest 439 505 30,000  Level FlightAware
06:46AM 47.9520 4.2210 319° Northwest 438 504 30,000  Level FlightAware
06:46AM 48.0110 4.1430 319° Northwest 437 503 30,000  Level FlightAware
06:47AM 48.0620 4.0790 320° Northwest 441 507 30,000  Level FlightAware
06:48AM 48.1230 4.0170 326° Northwest 448 516 30,000  Level FlightAware
06:48AM 48.1890 3.9610 331° Northwest 450 518 30,000  Level FlightAware
06:49AM 48.2520 3.9080 331° Northwest 450 518 30,000  Level FlightAware
06:49AM 48.3140 3.8550 330° Northwest 450 518 30,000  Level FlightAware
06:50AM 48.3730 3.8060 331° Northwest 450 518 30,000  Level FlightAware
06:51AM 48.4410 3.7480 331° Northwest 448 516 30,000  Level FlightAware
06:51AM 48.5070 3.6910 330° Northwest 449 517 30,000  Level FlightAware
06:52AM 48.5650 3.6420 331° Northwest 449 517 30,000  Level FlightAware
06:52AM 48.6250 3.5900 330° Northwest 448 516 30,000  Level FlightAware
06:53AM 48.6910 3.5330 330° Northwest 443 510 30,000  Level FlightAware
06:53AM 48.7430 3.4890 331° Northwest 449 517 30,000  Level FlightAware
06:54AM 48.8270 3.4160 330° Northwest 445 512 30,000  Level FlightAware
06:55AM 48.8930 3.3590 330° Northwest 446 513 30,000  Level FlightAware
06:55AM 48.9590 3.3010 330° Northwest 446 513 30,000  Level FlightAware
06:56AM 49.0230 3.2460 331° Northwest 453 521 30,000  Level FlightAware
06:56AM 49.0840 3.1920 330° Northwest 453 521 30,000  Level FlightAware
06:57AM 49.1540 3.1310 330° Northwest 454 522 30,000  Level FlightAware
06:58AM 49.2120 3.0790 330° Northwest 455 524 30,000  Level FlightAware
06:58AM 49.2750 3.0240 330° Northwest 456 525 30,000  Level FlightAware
06:59AM 49.3390 2.9670 330° Northwest 456 525 30,000  Level FlightAware
06:59AM 49.4040 2.9090 330° Northwest 456 525 30,000  Level FlightAware
07:00AM 49.4570 2.8620 330° Northwest 449 517 30,000  Level FlightAware
07:01AM 49.5320 2.7940 330° Northwest 449 517 30,000  Level FlightAware
07:01AM 49.5388 2.7907 330° Northwest 1 1 30,000  Level FlightAware UK
07:01AM 49.5820 2.7500 330° Northwest 456 525 30,000 -120 Level FlightAware
07:02AM 49.6587 2.6816 330° Northwest 478 550 29,900  Descending FlightAware UK
07:02AM 49.6630 2.6770 330° Northwest 456 525 30,000 180 Climbing FlightAware
07:02AM 49.7060 2.6380 330° Northwest 456 525 30,000  Level FlightAware
07:03AM 49.7690 2.5810 330° Northwest 457 526 30,000  Level FlightAware
07:03AM 49.8440 2.5130 330° Northwest 457 526 30,000  Level FlightAware
07:04AM 49.9000 2.4620 330° Northwest 457 526 30,000  Level FlightAware
07:05AM 49.9680 2.4000 330° Northwest 456 525 30,000  Level FlightAware
07:05AM 50.0360 2.3370 329° Northwest 455 524 30,000  Level FlightAware
07:06AM 50.0920 2.2860 330° Northwest 454 522 30,000  Level FlightAware
07:06AM 50.1480 2.2340 329° Northwest 453 521 30,000  Level FlightAware
07:07AM 50.2240 2.1640 329° Northwest 453 521 30,000  Level FlightAware
07:08AM 50.2870 2.1060 330° Northwest 454 522 30,000  Level FlightAware
07:08AM 50.3480 2.0460 328° Northwest 451 519 30,000  Level FlightAware
07:09AM 50.4000 1.9840 323° Northwest 444 511 30,000  Level FlightAware
07:09AM 50.4469 1.9173 323° Northwest 474 545 30,000  Level FlightAware UK
07:09AM 50.4550 1.9040 323° Northwest 442 509 30,000  Level FlightAware
07:10AM 50.5040 1.8320 317° Northwest 442 509 30,000 720 Level FlightAware
07:10AM 50.5531 1.7586 317° Northwest 474 545 30,800 1,320 Climbing FlightAware UK
07:11AM 50.5660 1.7400 317° Northwest 441 507 31,000 1,020 Climbing FlightAware
07:11AM 50.6190 1.6600 316° Northwest 439 505 31,600 780 Climbing FlightAware
07:12AM 50.6760 1.5730 316° Northwest 432 497 32,000 300 Climbing FlightAware
07:12AM 50.7210 1.5050 316° Northwest 428 493 32,000  Level FlightAware
07:13AM 50.7720 1.4270 316° Northwest 430 495 32,000  Level FlightAware
07:13AM 50.8230 1.3500 316° Northwest 434 499 32,000  Level FlightAware
07:14AM 50.8750 1.2710 316° Northwest 434 499 32,000  Level FlightAware
07:15AM 50.9260 1.1920 316° Northwest 436 502 32,000  Level FlightAware
07:15AM 50.9720 1.1210 316° Northwest 437 503 32,000  Level FlightAware
07:15AM 50.9934 1.0885 316° Northwest 32,000  Level FlightAware ADS-B
07:16AM 51.0069 1.0677 316° Northwest 438 504 32,000  Level FlightAware ADS-B
07:16AM 51.0525 0.9972 316° Northwest 438 504 32,000  Level FlightAware ADS-B
07:17AM 51.0968 0.9285 316° Northwest 438 504 32,000  Level FlightAware ADS-B
07:17AM 51.1462 0.8517 316° Northwest 438 504 32,000  Level FlightAware ADS-B
07:18AM 51.1901 0.7834 316° Northwest 438 504 32,000  Level FlightAware ADS-B
07:18AM 51.2357 0.7120 316° Northwest 437 503 32,000  Level FlightAware ADS-B
07:19AM 51.2798 0.6427 315° West 436 502 32,000  Level FlightAware ADS-B
07:19AM 51.3257 0.5706 316° Northwest 435 501 32,000  Level FlightAware ADS-B
07:20AM 51.3688 0.5027 315° West 433 498 32,000  Level FlightAware ADS-B
07:20AM 51.4133 0.4322 315° West 433 498 32,000  Level FlightAware ADS-B
07:21AM 51.4470 0.3790 315° West 434 499 32,000  Level FlightAware ADS-B
07:21AM 51.4646 0.3535 318° Northwest 437 503 32,000  Level FlightAware ADS-B
07:21AM 51.4958 0.3127 321° Northwest 440 506 32,000  Level FlightAware ADS-B
07:22AM 51.5508 0.2476 324° Northwest 443 510 32,000  Level FlightAware ADS-B
07:22AM 51.6018 0.1892 325° Northwest 443 510 32,000  Level FlightAware ADS-B
07:23AM 51.6519 0.1324 325° Northwest 443 510 32,000  Level FlightAware ADS-B
07:23AM 51.7036 0.0738 325° Northwest 441 507 32,000  Level FlightAware ADS-B
07:24AM 51.7542 0.0163 325° Northwest 441 507 32,000  Level FlightAware ADS-B
07:24AM 51.8043 -0.0410 325° Northwest 440 506 32,000  Level FlightAware ADS-B
07:25AM 51.8553 -0.0993 325° Northwest 440 506 32,000  Level FlightAware ADS-B
07:25AM 51.9079 -0.1596 325° Northwest 439 505 32,000  Level FlightAware ADS-B
07:26AM 51.9574 -0.2167 325° Northwest 439 505 32,000  Level FlightAware ADS-B
07:26AM 52.0080 -0.2751 325° Northwest 440 506 32,000  Level FlightAware ADS-B
07:27AM 52.0584 -0.3338 324° Northwest 439 505 32,000  Level FlightAware ADS-B
07:27AM 52.1092 -0.3928 325° Northwest 439 505 32,000  Level FlightAware ADS-B
07:28AM 52.1654 -0.4585 324° Northwest 438 504 32,000  Level FlightAware ADS-B
07:28AM 52.2170 -0.5190 324° Northwest 436 502 32,000  Level FlightAware ADS-B
07:29AM 52.2683 -0.5792 324° Northwest 435 501 32,000  Level FlightAware ADS-B
07:30AM 52.3213 -0.6416 324° Northwest 436 502 32,000  Level FlightAware ADS-B
07:30AM 52.3746 -0.7043 324° Northwest 435 501 32,000  Level FlightAware ADS-B
07:31AM 52.4293 -0.7691 324° Northwest 436 502 32,000  Level FlightAware ADS-B
07:31AM 52.4786 -0.8278 324° Northwest 436 502 32,000  Level FlightAware ADS-B
07:32AM 52.5278 -0.8863 324° Northwest 436 502 32,000  Level FlightAware ADS-B
07:32AM 52.5776 -0.9459 324° Northwest 436 502 32,000  Level FlightAware ADS-B
07:33AM 52.6380 -1.0180 324° Northwest 436 502 32,000  Level FlightAware
07:33AM 52.6910 -1.0820 324° Northwest 435 501 32,000  Level FlightAware
07:33AM 52.6987 -1.0910 324° Northwest 474 545 32,000  Level FlightAware UK
07:34AM 52.7482 -1.1511 324° Northwest 434 499 32,000  Level FlightAware ADS-B
07:35AM 52.8075 -1.2228 324° Northwest 434 499 32,000  Level FlightAware ADS-B
07:35AM 52.8640 -1.2910 324° Northwest 432 497 32,000  Level FlightAware
07:36AM 52.9144 -1.3527 324° Northwest 433 498 32,000  Level FlightAware ADS-B
07:36AM 52.9707 -1.4216 324° Northwest 433 498 32,000  Level FlightAware ADS-B
07:37AM 53.0197 -1.4816 324° Northwest 432 497 32,000  Level FlightAware ADS-B
07:37AM 53.0819 -1.5587 323° Northwest 430 495 32,000  Level FlightAware ADS-B
07:38AM 53.1507 -1.6438 323° Northwest 464 534 32,000  Level FlightAware UK
07:38AM 53.1480 -1.6400 323° Northwest 429 494 32,000  Level FlightAware
07:38AM 53.1707 -1.6680 324° Northwest 430 495 32,000  Level FlightAware ADS-B
07:39AM 53.1962 -1.7018 322° Northwest 429 494 32,000  Level FlightAware ADS-B
07:39AM 53.2255 -1.7520 314° West 427 491 32,000  Level FlightAware ADS-B
07:39AM 53.2516 -1.8115 306° West 425 489 32,000  Level FlightAware ADS-B
07:40AM 53.2875 -1.9084 306° West 464 534 32,000  Level FlightAware UK
07:40AM 53.3221 -2.0029 306° West 427 491 32,000  Level FlightAware ADS-B
07:41AM 53.3540 -2.0900 302° West 428 493 32,000  Level FlightAware
07:42AM 53.3870 -2.1810 301° West 427 491 32,000  Level FlightAware
07:42AM 53.4250 -2.2880 301° West 427 491 32,000  Level FlightAware
07:43AM 53.4590 -2.3820 301° West 427 491 32,000  Level FlightAware
07:43AM 53.4960 -2.4870 301° West 427 491 32,000  Level FlightAware
07:44AM 53.5313 -2.5863 301° West 468 539 32,000  Level FlightAware UK
07:44AM 53.5330 -2.5900 301° West 427 491 32,000  Level FlightAware
07:44AM 53.5670 -2.6870 301° West 428 493 32,000  Level FlightAware
07:45AM 53.6030 -2.7900 301° West 428 493 32,000  Level FlightAware
07:46AM 53.6350 -2.8810 301° West 427 491 32,000  Level FlightAware
07:46AM 53.6710 -2.9830 301° West 427 491 32,000  Level FlightAware
07:47AM 53.7090 -3.0920 301° West 426 490 32,000  Level FlightAware
07:47AM 53.7430 -3.1900 300° West 424 488 32,000  Level FlightAware
07:48AM 53.7740 -3.2810 300° West 423 487 32,000  Level FlightAware
07:49AM 53.8090 -3.3830 300° West 423 487 32,000  Level FlightAware
07:49AM 53.8420 -3.4790 300° West 422 486 32,000  Level FlightAware
07:50AM 53.8800 -3.5900 300° West 421 484 32,000  Level FlightAware
07:50AM 53.9090 -3.6740 300° West 420 483 32,000  Level FlightAware
07:51AM 53.9480 -3.7890 300° West 419 482 32,000  Level FlightAware
07:51AM 53.9750 -3.8680 300° West 419 482 32,000  Level FlightAware
07:51AM 53.9806 -3.8858 300° West 468 539 32,000  Level FlightAware UK
07:52AM 54.0110 -3.9740 300° West 417 480 32,000  Level FlightAware
07:53AM 54.0490 -4.0880 300° West 416 479 32,000  Level FlightAware
07:53AM 54.0790 -4.1740 301° West 415 478 32,000  Level FlightAware
07:54AM 54.1150 -4.2810 300° West 413 475 32,000  Level FlightAware
07:54AM 54.1430 -4.3650 300° West 412 474 32,000  Level FlightAware
07:55AM 54.1820 -4.4830 299° West 411 473 32,000  Level FlightAware
07:56AM 54.2110 -4.5710 299° West 410 472 32,000 -240 Level FlightAware
07:56AM 54.2142 -4.5796 299° West 464 534 31,900  Descending FlightAware UK
07:56AM 54.2460 -4.6730 300° West 410 472 32,000 60 Climbing FlightAware
07:57AM 54.2750 -4.7630 299° West 410 472 32,000  Level FlightAware
07:57AM 54.3080 -4.8640 299° West 409 471 32,000  Level FlightAware
07:58AM 54.3422 -4.9676 299° West 466 536 32,000  Level FlightAware UK
07:58AM 54.3430 -4.9690 299° West 408 470 32,000  Level FlightAware
07:58AM 54.3740 -5.0650 299° West 408 470 32,000  Level FlightAware
07:59AM 54.4060 -5.1630 299° West 407 468 32,000  Level FlightAware
08:00AM 54.4350 -5.2550 299° West 406 467 32,000  Level FlightAware
08:00AM 54.4410 -5.2722 299° West 468 539 32,000  Level FlightAware UK
08:00AM 54.4737 -5.3733 299° West 468 539 32,000  Level FlightAware UK
08:00AM 54.4740 -5.3750 299° West 404 465 32,000  Level FlightAware
08:01AM 54.5010 -5.4580 299° West 404 465 32,000  Level FlightAware
08:01AM 54.5320 -5.5570 298° West 403 464 32,000  Level FlightAware
08:02AM 54.5650 -5.6596 298° West 468 539 32,000  Level FlightAware UK
08:02AM 54.5660 -5.6620 298° West 402 463 32,000  Level FlightAware
08:03AM 54.5940 -5.7530 298° West 401 461 32,000  Level FlightAware
08:03AM 54.6270 -5.8570 299° West 402 463 32,000  Level FlightAware
08:04AM 54.6600 -5.9600 299° West 400 460 32,000  Level FlightAware
08:04AM 54.6890 -6.0530 298° West 400 460 32,000  Level FlightAware
08:05AM 54.7170 -6.1450 298° West 400 460 32,000  Level FlightAware
08:05AM 54.7460 -6.2370 299° West 397 457 32,000  Level FlightAware
08:06AM 54.7760 -6.3340 298° West 396 456 32,000  Level FlightAware
08:07AM 54.8060 -6.4320 298° West 396 456 32,000  Level FlightAware
08:07AM 54.8123 -6.4518 298° West 470 541 32,000  Level FlightAware UK
08:07AM 54.8383 -6.5367 298° West 470 541 32,000  Level FlightAware UK
08:07AM 54.8470 -6.5650 298° West 396 456 32,000  Level FlightAware
08:08AM 54.8770 -6.6620 298° West 398 458 32,000  Level FlightAware
08:08AM 54.9000 -6.7390 297° West 398 458 32,000  Level FlightAware
08:09AM 54.9350 -6.8540 298° West 401 461 32,000  Level FlightAware
08:10AM 54.9675 -6.9631 298° West 474 545 32,000  Level FlightAware UK
08:10AM 54.9650 -6.9530 298° West 401 461 32,000  Level FlightAware
08:10AM 54.9931 -7.0485 298° West 472 543 32,000  Level FlightAware UK
08:10AM 54.9960 -7.0590 298° West 401 461 32,000  Level FlightAware
08:11AM 55.0260 -7.1580 298° West 401 461 32,000  Level FlightAware
08:12AM 55.0540 -7.2530 298° West 400 460 32,000  Level FlightAware
08:12AM 55.0696 -7.3049 298° West 476 548 32,000  Level FlightAware UK
08:12AM 55.0949 -7.3902 298° West 474 545 32,000  Level FlightAware UK
08:12AM 55.0960 -7.3930 298° West 397 457 32,000  Level FlightAware
08:13AM 55.1247 -7.4919 298° West 474 545 32,000  Level FlightAware UK
08:13AM 55.1320 -7.5160 298° West 396 456 32,000  Level FlightAware
08:14AM 55.1610 -7.6160 297° West 394 453 32,000  Level FlightAware
08:14AM 55.1900 -7.7140 297° West 397 457 32,000  Level FlightAware
08:15AM 55.2190 -7.8150 297° West 398 458 32,000  Level FlightAware
08:15AM 55.2490 -7.9194 297° West 482 555 32,000  Level FlightAware UK
08:15AM 55.2480 -7.9150 297° West 398 458 32,000  Level FlightAware
08:16AM 55.2739 -8.0058 297° West 482 555 32,000  Level FlightAware UK
08:16AM 55.2770 -8.0170 297° West 396 456 32,000  Level FlightAware
08:16AM 55.3060 -8.1160 297° West 395 455 32,000  Level FlightAware
08:17AM 55.3340 -8.2160 296° West 394 453 32,000  Level FlightAware
08:18AM 55.3630 -8.3170 297° West 392 451 32,000  Level FlightAware
08:18AM 55.3900 -8.4120 297° West 388 447 32,000  Level FlightAware
08:19AM 55.4199 -8.5193 297° West 484 557 32,000  Level FlightAware UK
08:19AM 55.4240 -8.5330 297° West 386 444 32,000  Level FlightAware
08:19AM 55.4510 -8.6300 296° West 385 443 32,000  Level FlightAware
08:20AM 55.4770 -8.7240 296° West 384 442 32,000 240 Level FlightAware
08:21AM 55.5070 -8.8300 297° West 384 442 32,300 840 Climbing FlightAware
08:21AM 55.5380 -8.9440 296° West 387 445 33,100 1,200 Climbing FlightAware
08:22AM 55.5660 -9.0430 297° West 390 449 33,800 1,080 Climbing FlightAware
08:22AM 55.5930 -9.1430 296° West 388 447 34,400 900 Climbing FlightAware
08:23AM 55.6180 -9.2340 296° West 386 444 34,900 480 Climbing FlightAware
08:24AM 55.6480 -9.3460 295° West 383 441 35,000 60 Climbing FlightAware
08:24AM 55.6790 -9.4580 296° West 385 443 35,000  Level FlightAware
08:25AM 55.7050 -9.5580 295° West 386 444 35,000  Level FlightAware
08:25AM 55.7310 -9.6550 295° West 385 443 35,000  Level FlightAware
08:26AM 55.7530 -9.7370 296° West 385 443 35,000  Level FlightAware
08:27AM 55.7880 -9.8680 295° West 377 434 35,000  Level FlightAware
08:27AM 55.8140 -9.9660 295° West 367 422 35,000  Level FlightAware
08:28AM 55.8380 -10.0580 295° West 364 419 35,000  Level FlightAware
08:28AM 55.8640 -10.1550 296° West 360 414 35,000  Level FlightAware
08:29AM 55.8990 -10.2950 294° West 359 413 35,000  Level FlightAware
08:30AM 55.9290 -10.4070 296° West 358 412 35,000  Level FlightAware
08:31AM 55.9550 -10.5060 295° West 356 410 35,000  Level FlightAware
08:32AM 55.9890 -10.6400 294° West 355 409 35,000  Level FlightAware
08:32AM 56.0090 -10.7200 294° West 355 409 35,000  Level FlightAware
08:33AM 56.0290 -10.8020 294° West 355 409 35,000  Level FlightAware
08:33AM 56.0500 -10.8840 295° West 355 409 35,000  Level FlightAware
08:34AM 56.0710 -10.9690 294° West 355 409 35,000  Level FlightAware
08:35AM 56.0910 -11.0510 294° West 355 409 35,000  Level FlightAware
08:35AM 56.1130 -11.1380 294° West 355 409 35,000  Level FlightAware
08:36AM 56.1330 -11.2210 293° West 355 409 35,000  Level FlightAware
08:36AM 56.1540 -11.3030 295° West 355 409 35,000  Level FlightAware
08:37AM 56.1740 -11.3850 294° West 355 409 35,000  Level FlightAware
08:38AM 56.1940 -11.4680 293° West 355 409 35,000  Level FlightAware
08:38AM 56.2150 -11.5510 294° West 355 409 35,000  Level FlightAware
08:39AM 56.2350 -11.6330 294° West 355 409 35,000  Level FlightAware
08:39AM 56.2560 -11.7160 295° West 355 409 35,000  Level FlightAware
08:40AM 56.2760 -11.7980 294° West 355 409 35,000  Level FlightAware
08:41AM 56.2970 -11.8810 295° West 355 409 35,000  Level FlightAware
08:43AM 56.3374 -12.2603 281° West  Level Estimated
08:44AM 56.3581 -12.4603 281° West  Level Estimated
08:45AM 56.3786 -12.6605 281° West  Level Estimated
08:46AM 56.3987 -12.8609 280° West  Level Estimated
08:47AM 56.4185 -13.0615 280° West  Level Estimated
08:48AM 56.4380 -13.2623 280° West  Level Estimated
08:49AM 56.4572 -13.4634 280° West  Level Estimated
08:50AM 56.4760 -13.6646 280° West  Level Estimated
08:51AM 56.4945 -13.8660 280° West  Level Estimated
08:52AM 56.5127 -14.0676 279° West  Level Estimated
08:53AM 56.5305 -14.2694 279° West  Level Estimated
08:54AM 56.5481 -14.4714 279° West  Level Estimated
08:55AM 56.5653 -14.6736 279° West  Level Estimated
08:56AM 56.5821 -14.8760 279° West  Level Estimated
08:57AM 56.5987 -15.0785 279° West  Level Estimated
08:58AM 56.6149 -15.2812 278° West  Level Estimated
08:59AM 56.6308 -15.4841 278° West  Level Estimated
09:00AM 56.6463 -15.6872 278° West  Level Estimated
09:01AM 56.6615 -15.8904 278° West  Level Estimated
09:02AM 56.6764 -16.0934 278° West  Level Estimated
09:03AM 56.6909 -16.2965 278° West  Level Estimated
09:04AM 56.7051 -16.4998 277° West  Level Estimated
09:05AM 56.7257 -16.7092 280° West  Level FlightAware Approximate
09:06AM 56.7459 -16.9189 280° West  Level FlightAware Approximate
09:07AM 56.7657 -17.1289 280° West  Level FlightAware Approximate
09:08AM 56.7852 -17.3390 280° West  Level FlightAware Approximate
09:09AM 56.8043 -17.5494 280° West  Level FlightAware Approximate
09:10AM 56.8231 -17.7599 279° West  Level FlightAware Approximate
09:11AM 56.8415 -17.9707 279° West  Level FlightAware Approximate
09:12AM 56.8596 -18.1817 279° West  Level FlightAware Approximate
09:13AM 56.8773 -18.3929 279° West  Level FlightAware Approximate
09:14AM 56.8947 -18.6043 279° West  Level FlightAware Approximate
09:15AM 56.9117 -18.8159 278° West  Level FlightAware Approximate
09:16AM 56.9283 -19.0276 278° West  Level FlightAware Approximate
09:17AM 56.9446 -19.2396 278° West  Level FlightAware Approximate
09:18AM 56.9606 -19.4517 278° West  Level FlightAware Approximate
09:19AM 56.9761 -19.6640 278° West  Level FlightAware Approximate
09:20AM 56.9913 -19.8766 278° West  Level FlightAware Approximate
09:21AM 57.0036 -20.0897 274° West  Level FlightAware Approximate
09:22AM 57.0118 -20.3036 274° West  Level FlightAware Approximate
09:23AM 57.0196 -20.5177 274° West  Level FlightAware Approximate
09:24AM 57.0271 -20.7318 274° West  Level FlightAware Approximate
09:25AM 57.0342 -20.9460 274° West  Level FlightAware Approximate
09:25AM 57.0000 -20.0000 274° West 408 470 35,000  Level ETMS Enhanced Traffic Management System
09:26AM 57.0410 -21.1602 273° West  Level FlightAware Approximate
09:27AM 57.0473 -21.3746 273° West  Level FlightAware Approximate
09:28AM 57.0533 -21.5890 273° West  Level FlightAware Approximate
09:29AM 57.0590 -21.8035 273° West  Level FlightAware Approximate
09:30AM 57.0643 -22.0180 273° West  Level FlightAware Approximate
09:31AM 57.0607 -21.8716 273° West 408 470 35,000  Level FlightAware Transoceanic
09:32AM 57.0657 -22.0799 272° West 408 470 35,000  Level FlightAware Transoceanic
09:33AM 57.0704 -22.2882 272° West 408 470 35,000  Level FlightAware Transoceanic
09:34AM 57.0747 -22.4966 272° West 408 470 35,000  Level FlightAware Transoceanic
09:35AM 57.0787 -22.7051 272° West 408 470 35,000  Level FlightAware Transoceanic
09:36AM 57.0824 -22.9136 272° West 408 470 35,000  Level FlightAware Transoceanic
09:37AM 57.0857 -23.1221 272° West 408 470 35,000  Level FlightAware Transoceanic
09:38AM 57.0886 -23.3307 271° West 408 470 35,000  Level FlightAware Transoceanic
09:39AM 57.0912 -23.5393 271° West 408 470 35,000  Level FlightAware Transoceanic
09:40AM 57.0935 -23.7479 271° West 408 470 35,000  Level FlightAware Transoceanic
09:41AM 57.0954 -23.9566 271° West 408 470 35,000  Level FlightAware Transoceanic
09:42AM 57.0969 -24.1652 271° West 408 470 35,000  Level FlightAware Transoceanic
09:43AM 57.0981 -24.3739 271° West 408 470 35,000  Level FlightAware Transoceanic
09:44AM 57.0990 -24.5826 270° West 408 470 35,000  Level FlightAware Transoceanic
09:45AM 57.0995 -24.7913 270° West 408 470 35,000  Level FlightAware Transoceanic
09:46AM 57.0997 -25.0000 270° West 408 470 35,000  Level FlightAware Transoceanic
09:47AM 57.0995 -25.2087 270° West 408 470 35,000  Level FlightAware Transoceanic
09:48AM 57.0990 -25.4174 270° West 408 470 35,000  Level FlightAware Transoceanic
09:49AM 57.0981 -25.6261 269° West 408 470 35,000  Level FlightAware Transoceanic
09:50AM 57.0969 -25.8348 269° West 408 470 35,000  Level FlightAware Transoceanic
09:51AM 57.0954 -26.0434 269° West 408 470 35,000  Level FlightAware Transoceanic
09:52AM 57.0935 -26.2521 269° West 408 470 35,000  Level FlightAware Transoceanic
09:53AM 57.0912 -26.4607 269° West 408 470 35,000  Level FlightAware Transoceanic
09:54AM 57.0886 -26.6693 269° West 408 470 35,000  Level FlightAware Transoceanic
09:55AM 57.0857 -26.8779 268° West 408 470 35,000  Level FlightAware Transoceanic
09:56AM 57.0824 -27.0864 268° West 408 470 35,000  Level FlightAware Transoceanic
09:57AM 57.0787 -27.2949 268° West 408 470 35,000  Level FlightAware Transoceanic
09:58AM 57.0747 -27.5034 268° West 408 470 35,000  Level FlightAware Transoceanic
09:59AM 57.0704 -27.7118 268° West 408 470 35,000  Level FlightAware Transoceanic
10:00AM 57.0657 -27.9201 268° West 408 470 35,000  Level FlightAware Transoceanic
10:01AM 57.0607 -28.1284 267° West 408 470 35,000  Level FlightAware Transoceanic
10:02AM 57.0554 -28.3367 267° West 408 470 35,000  Level FlightAware Transoceanic
10:03AM 57.0496 -28.5448 267° West 408 470 35,000  Level FlightAware Transoceanic
10:04AM 57.0436 -28.7529 267° West 408 470 35,000  Level FlightAware Transoceanic
10:05AM 57.0372 -28.9610 267° West 408 470 35,000  Level FlightAware Transoceanic
10:06AM 57.0304 -29.1689 267° West 408 470 35,000  Level FlightAware Transoceanic
10:07AM 57.0233 -29.3768 266° West 408 470 35,000  Level FlightAware Transoceanic
10:08AM 57.0159 -29.5846 266° West 408 470 35,000  Level FlightAware Transoceanic
10:09AM 57.0081 -29.7924 266° West 408 470 35,000  Level FlightAware Transoceanic
10:10AM 56.9997 -30.0063 266° West  Level FlightAware Approximate
10:11AM 57.0005 -30.0125 274° West  Level FlightAware Approximate
10:12AM 57.0088 -30.2264 274° West  Level FlightAware Approximate
10:13AM 57.0168 -30.4404 274° West  Level FlightAware Approximate
10:14AM 57.0244 -30.6545 274° West  Level FlightAware Approximate
10:15AM 57.0000 -30.0000 274° West 425 489 35,000  Level ETMS Enhanced Traffic Management System
10:15AM 57.0317 -30.8687 274° West  Level FlightAware Approximate
10:16AM 57.0386 -31.0829 273° West  Level FlightAware Approximate
10:17AM 57.0451 -31.2972 273° West  Level FlightAware Approximate
10:18AM 57.0513 -31.5126 273° West  Level FlightAware Approximate
10:19AM 57.0571 -31.7281 273° West  Level FlightAware Approximate
10:20AM 57.0625 -31.9437 273° West  Level FlightAware Approximate
10:21AM 57.0678 -32.1705 272° West 425 489 35,000  Level FlightAware Transoceanic
10:22AM 57.0725 -32.3879 272° West 425 489 35,000  Level FlightAware Transoceanic
10:23AM 57.0769 -32.6054 272° West 425 489 35,000  Level FlightAware Transoceanic
10:24AM 57.0808 -32.8229 272° West 425 489 35,000  Level FlightAware Transoceanic
10:25AM 57.0844 -33.0405 272° West 425 489 35,000  Level FlightAware Transoceanic
10:26AM 57.0876 -33.2581 271° West 425 489 35,000  Level FlightAware Transoceanic
10:27AM 57.0905 -33.4758 271° West 425 489 35,000  Level FlightAware Transoceanic
10:28AM 57.0929 -33.6935 271° West 425 489 35,000  Level FlightAware Transoceanic
10:29AM 57.0950 -33.9112 271° West 425 489 35,000  Level FlightAware Transoceanic
10:30AM 57.0967 -34.1289 271° West 425 489 35,000  Level FlightAware Transoceanic
10:31AM 57.0980 -34.3467 271° West 425 489 35,000  Level FlightAware Transoceanic
10:32AM 57.0989 -34.5644 270° West 425 489 35,000  Level FlightAware Transoceanic
10:33AM 57.0995 -34.7822 270° West 425 489 35,000  Level FlightAware Transoceanic
10:34AM 57.0997 -35.0000 270° West 425 489 35,000  Level FlightAware Transoceanic
10:35AM 57.0995 -35.2178 270° West 425 489 35,000  Level FlightAware Transoceanic
10:36AM 57.0989 -35.4356 270° West 425 489 35,000  Level FlightAware Transoceanic
10:37AM 57.0980 -35.6533 269° West 425 489 35,000  Level FlightAware Transoceanic
10:38AM 57.0967 -35.8711 269° West 425 489 35,000  Level FlightAware Transoceanic
10:39AM 57.0950 -36.0888 269° West 425 489 35,000  Level FlightAware Transoceanic
10:40AM 57.0929 -36.3065 269° West 425 489 35,000  Level FlightAware Transoceanic
10:41AM 57.0905 -36.5242 269° West 425 489 35,000  Level FlightAware Transoceanic
10:42AM 57.0876 -36.7419 269° West 425 489 35,000  Level FlightAware Transoceanic
10:43AM 57.0844 -36.9595 268° West 425 489 35,000  Level FlightAware Transoceanic
10:44AM 57.0808 -37.1771 268° West 425 489 35,000  Level FlightAware Transoceanic
10:45AM 57.0769 -37.3946 268° West 425 489 35,000  Level FlightAware Transoceanic
10:46AM 57.0725 -37.6121 268° West 425 489 35,000  Level FlightAware Transoceanic
10:47AM 57.0678 -37.8295 268° West 425 489 35,000  Level FlightAware Transoceanic
10:48AM 57.0627 -38.0469 267° West 425 489 35,000  Level FlightAware Transoceanic
10:49AM 57.0573 -38.2642 267° West 425 489 35,000  Level FlightAware Transoceanic
10:50AM 57.0514 -38.4815 267° West 425 489 35,000  Level FlightAware Transoceanic
10:51AM 57.0452 -38.6987 267° West 425 489 35,000  Level FlightAware Transoceanic
10:51AM 57.0667 -38.5167 266° West 440 506 35,000  Level Gander Center
10:52AM 57.0386 -38.9158 267° West 425 489 35,000  Level FlightAware Transoceanic
10:52AM 57.0667 -38.7500 270° West 440 506 35,000  Level Gander Center
10:53AM 57.0316 -39.1328 267° West 425 489 35,000  Level FlightAware Transoceanic
10:53AM 57.0500 -38.9833 263° West 440 506 35,000  Level Gander Center
10:54AM 57.0243 -39.3497 266° West 425 489 35,000  Level FlightAware Transoceanic
10:54AM 57.0333 -39.1833 261° West 440 506 35,000  Level Gander Center
10:55AM 57.0166 -39.5666 266° West 425 489 35,000  Level FlightAware Transoceanic
10:55AM 57.0333 -39.4000 270° West 440 506 35,000  Level Gander Center
10:56AM 57.0085 -39.7833 266° West 425 489 35,000  Level FlightAware Transoceanic
10:56AM 57.0333 -39.6333 270° West 440 506 35,000  Level Gander Center
10:57AM 57.0001 -39.9983 266° West  Level FlightAware Approximate
10:57AM 57.0167 -39.8667 263° West 440 506 35,000  Level Gander Center
10:58AM 57.0000 -40.0833 262° West 450 518 35,000  Level Gander Center
10:59AM 56.9833 -40.3167 263° West 460 529 35,000  Level Gander Center
11:00AM 56.9833 -40.5500 270° West 460 529 35,000  Level Gander Center
11:00AM 57.0000 -40.0000 264° West 448 516 35,000  Level ETMS Enhanced Traffic Management System
11:01AM 56.9667 -40.7833 264° West 460 529 35,000  Level Gander Center
11:02AM 56.9500 -41.0000 262° West 460 529 35,000  Level Gander Center
11:03AM 56.9333 -41.2333 263° West 460 529 35,000  Level Gander Center
11:04AM 56.9167 -41.4667 263° West 460 529 35,000  Level Gander Center
11:05AM 56.9000 -41.7000 263° West 450 518 35,000  Level Gander Center
11:06AM 56.8833 -41.9167 262° West 450 518 35,000  Level Gander Center
11:07AM 56.8667 -42.1500 263° West 450 518 35,000  Level Gander Center
11:08AM 56.8500 -42.3833 263° West 450 518 35,000  Level Gander Center
11:09AM 56.8333 -42.6000 262° West 450 518 35,000  Level Gander Center
11:10AM 56.8167 -42.8333 263° West 460 529 35,000  Level Gander Center
11:11AM 56.8000 -43.0667 263° West 460 529 35,000  Level Gander Center
11:12AM 56.7833 -43.2833 262° West 460 529 35,000  Level Gander Center
11:13AM 56.7667 -43.5167 263° West 460 529 35,000  Level Gander Center
11:14AM 56.7500 -43.7500 263° West 460 529 35,000  Level Gander Center
11:15AM 56.7167 -43.9667 254° West 460 529 35,000  Level Gander Center
11:16AM 56.7000 -44.2000 263° West 460 529 35,000  Level Gander Center
11:17AM 56.6833 -44.4167 262° West 460 529 35,000  Level Gander Center
11:18AM 56.6667 -44.6500 263° West 460 529 35,000  Level Gander Center
11:19AM 56.6333 -44.8833 256° West 460 529 35,000  Level Gander Center
11:20AM 56.6000 -45.1167 256° West 460 529 35,000  Level Gander Center
11:21AM 56.5833 -45.3667 263° West 460 529 35,000  Level Gander Center
11:22AM 56.5667 -45.5833 262° West 460 529 35,000  Level Gander Center
11:23AM 56.5333 -45.8167 256° West 460 529 35,000  Level Gander Center
11:24AM 56.5167 -46.0333 262° West 460 529 35,000  Level Gander Center
11:25AM 56.4833 -46.2667 256° West 460 529 35,000  Level Gander Center
11:26AM 56.4667 -46.4833 262° West 460 529 35,000  Level Gander Center
11:27AM 56.4333 -46.7167 256° West 460 529 35,000  Level Gander Center
11:28AM 56.4167 -46.9333 262° West 450 518 35,000  Level Gander Center
11:29AM 56.3833 -47.1667 256° West 450 518 35,000  Level Gander Center
11:30AM 56.3667 -47.3833 262° West 460 529 35,000  Level Gander Center
11:31AM 56.3333 -47.6000 255° West 450 518 35,000  Level Gander Center
11:32AM 56.3167 -47.8000 262° West 450 518 35,000  Level Gander Center
11:33AM 56.2833 -48.0167 255° West 450 518 35,000  Level Gander Center
11:34AM 56.2500 -48.2500 256° West 450 518 35,000  Level Gander Center
11:35AM 56.2167 -48.4333 252° West 450 518 35,000  Level Gander Center
11:37AM 56.1804 -48.7070 257° West  Level FlightAware Approximate
11:44AM 55.9729 -50.1108 246° West  Level FlightAware Approximate
11:44AM 56.0000 -50.0000 250° West 448 516 35,000  Level ETMS Enhanced Traffic Management System
11:45AM 55.9262 -50.3003 246° West  Level FlightAware Approximate
11:46AM 55.8792 -50.4893 246° West  Level FlightAware Approximate
11:47AM 55.8319 -50.6779 246° West  Level FlightAware Approximate
11:48AM 55.7838 -50.8683 246° West  Level FlightAware Approximate
11:49AM 55.7354 -51.0583 246° West  Level FlightAware Approximate
11:50AM 55.6467 -51.6590 249° West 448 516 35,000  Level FlightAware Transoceanic
11:51AM 55.6010 -51.8643 248° West 448 516 35,000  Level FlightAware Transoceanic
11:52AM 55.5549 -52.0691 248° West 448 516 35,000  Level FlightAware Transoceanic
11:53AM 55.5085 -52.2733 248° West 448 516 35,000  Level FlightAware Transoceanic
11:54AM 55.4618 -52.4771 248° West 448 516 35,000  Level FlightAware Transoceanic
11:55AM 55.4147 -52.6805 248° West 448 516 35,000  Level FlightAware Transoceanic
11:56AM 55.3673 -52.8833 248° West 448 516 35,000  Level FlightAware Transoceanic
11:57AM 55.3195 -53.0857 247° West 448 516 35,000  Level FlightAware Transoceanic
11:58AM 55.2715 -53.2875 247° West 448 516 35,000  Level FlightAware Transoceanic
11:59AM 55.2230 -53.4889 247° West 448 516 35,000  Level FlightAware Transoceanic
12:00PM 55.1743 -53.6898 247° West 448 516 35,000  Level FlightAware Transoceanic
12:01PM 55.1252 -53.8901 247° West 448 516 35,000  Level FlightAware Transoceanic
12:02PM 55.0758 -54.0900 247° West 448 516 35,000  Level FlightAware Transoceanic
12:03PM 55.0261 -54.2894 246° West 448 516 35,000  Level FlightAware Transoceanic
12:04PM 54.9760 -54.4883 246° West 448 516 35,000  Level FlightAware Transoceanic
12:05PM 54.9257 -54.6867 246° West 448 516 35,000  Level FlightAware Transoceanic
12:06PM 54.8750 -54.8846 246° West 448 516 35,000  Level FlightAware Transoceanic
12:07PM 54.8239 -55.0820 246° West 448 516 35,000  Level FlightAware Transoceanic
12:08PM 54.7726 -55.2789 246° West 448 516 35,000  Level FlightAware Transoceanic
12:08PM 54.7833 -55.2000 234° Southwest 450 518 35,000  Level Moncton Center
12:09PM 54.7209 -55.4754 245° Southwest 448 516 35,000  Level FlightAware Transoceanic
12:09PM 54.7333 -55.3833 245° Southwest 450 518 35,000  Level Moncton Center
12:10PM 54.6690 -55.6713 245° Southwest 448 516 35,000  Level FlightAware Transoceanic
12:10PM 54.6833 -55.5667 245° Southwest 450 518 35,000  Level Moncton Center
12:11PM 54.6205 -55.8525 245° Southwest  Level FlightAware Approximate
12:11PM 54.6333 -55.7667 247° West 450 518 35,000  Level Gander Center
12:12PM 54.5477 -55.9926 234° Southwest  Level FlightAware Approximate
12:12PM 54.5667 -55.9500 238° Southwest 450 518 35,000  Level Gander Center
12:13PM 54.4802 -56.1542 234° Southwest  Level FlightAware Approximate
12:13PM 54.5167 -56.1333 245° Southwest 450 518 35,000  Level Gander Center
12:14PM 54.4333 -56.3333 234° Southwest 450 518 35,000 360 Level Gander Center
12:15PM 54.3667 -56.4833 233° Southwest 450 518 35,800 480 Climbing Gander Center
12:16PM 54.3167 -56.6667 245° Southwest 450 518 36,000 60 Climbing Gander Center
12:17PM 54.2333 -56.8500 232° Southwest 440 506 36,000  Level Gander Center
12:18PM 54.1667 -57.0333 238° Southwest 450 518 36,000  Level Gander Center
12:19PM 54.1000 -57.2000 236° Southwest 450 518 36,000  Level Gander Center
12:20PM 54.0333 -57.3833 238° Southwest 450 518 36,000  Level Gander Center
12:21PM 53.9667 -57.5833 241° Southwest 450 518 36,000  Level Gander Center
12:22PM 53.9000 -57.7333 233° Southwest 450 518 36,000  Level Gander Center
12:23PM 53.8167 -57.9333 235° Southwest 450 518 36,000  Level Gander Center
12:24PM 53.7500 -58.1167 238° Southwest 450 518 36,000  Level Gander Center
12:25PM 53.7000 -58.2833 243° Southwest 450 518 36,000  Level Gander Center
12:26PM 53.6167 -58.4667 233° Southwest 450 518 36,000  Level Gander Center
12:27PM 53.5500 -58.6333 236° Southwest 450 518 36,000  Level Gander Center
12:28PM 53.4667 -58.8167 233° Southwest 450 518 36,000  Level Gander Center
12:29PM 53.4000 -58.9833 236° Southwest 450 518 36,000  Level Gander Center
12:30PM 53.3333 -59.1500 236° Southwest 450 518 36,000  Level Gander Center
12:31PM 53.2667 -59.3333 239° Southwest 450 518 36,000  Level Gander Center
12:32PM 53.2000 -59.5000 236° Southwest 450 518 36,000  Level Gander Center
12:33PM 53.1167 -59.7000 235° Southwest 450 518 36,000  Level Gander Center
12:34PM 53.0500 -59.8333 230° Southwest 450 518 36,000  Level Gander Center
12:35PM 52.9667 -60.0333 235° Southwest 450 518 36,000  Level Gander Center
12:36PM 52.9000 -60.2000 236° Southwest 450 518 36,000  Level Gander Center
12:37PM 52.8333 -60.3667 237° Southwest 450 518 36,000  Level Gander Center
12:38PM 52.7667 -60.5333 237° Southwest 450 518 36,000  Level Gander Center
12:39PM 52.7000 -60.7000 237° Southwest 450 518 36,000  Level Gander Center
12:40PM 52.6167 -60.8667 231° Southwest 450 518 36,000  Level Gander Center
12:41PM 52.5500 -61.0333 237° Southwest 450 518 36,000  Level Gander Center
12:42PM 52.4667 -61.2000 231° Southwest 450 518 36,000  Level Gander Center
12:43PM 52.4000 -61.3667 237° Southwest 450 518 36,000  Level Gander Center
12:44PM 52.3333 -61.5333 237° Southwest 450 518 36,000  Level Gander Center
12:45PM 52.2333 -61.7167 228° Southwest 450 518 36,000  Level Moncton Center
12:46PM 52.1667 -61.8833 237° Southwest 450 518 36,000  Level Moncton Center
12:47PM 52.0833 -62.0500 231° Southwest 450 518 36,000  Level Moncton Center
12:48PM 52.0167 -62.2167 237° Southwest 450 518 36,000  Level Moncton Center
12:49PM 51.9333 -62.3667 228° Southwest 450 518 36,000  Level Moncton Center
12:50PM 51.8500 -62.5333 231° Southwest 450 518 36,000  Level Moncton Center
12:51PM 51.7833 -62.7000 237° Southwest 440 506 36,000  Level Moncton Center
12:52PM 51.7000 -62.8333 225° Southwest 440 506 36,000  Level Moncton Center
12:53PM 51.6500 -63.0000 244° Southwest 430 495 36,000  Level Moncton Center
12:54PM 51.5667 -63.1667 231° Southwest 430 495 36,000  Level Moncton Center
12:55PM 51.5000 -63.3167 235° Southwest 430 495 36,000  Level Moncton Center
12:56PM 51.4167 -63.4500 225° Southwest 430 495 36,000  Level Moncton Center
12:57PM 51.3500 -63.6000 235° Southwest 410 472 36,000  Level Moncton Center
12:58PM 51.2833 -63.7500 235° Southwest 410 472 36,000  Level Moncton Center
12:59PM 51.2167 -63.8833 231° Southwest 410 472 36,000  Level Moncton Center
01:00PM 51.1500 -64.0167 231° Southwest 410 472 36,000  Level Moncton Center
01:01PM 51.0667 -64.1833 232° Southwest 420 483 36,000  Level Moncton Center
01:02PM 51.0000 -64.3167 232° Southwest 420 483 36,000  Level Moncton Center
01:03PM 50.9167 -64.4833 232° Southwest 430 495 36,000  Level Moncton Center
01:04PM 50.8500 -64.6333 235° Southwest 430 495 36,000  Level Moncton Center
01:05PM 50.7667 -64.7667 225° Southwest 430 495 36,000  Level Moncton Center
01:06PM 50.7000 -64.9333 238° Southwest 430 495 36,000  Level Moncton Center
01:07PM 50.6333 -65.0500 228° Southwest 430 495 36,000  Level Moncton Center
01:08PM 50.5500 -65.2167 232° Southwest 430 495 36,000  Level Moncton Center
01:09PM 50.4667 -65.3500 226° Southwest 430 495 36,000  Level Moncton Center
01:10PM 50.3833 -65.5000 229° Southwest 430 495 36,000  Level Moncton Center
01:11PM 50.3167 -65.6333 232° Southwest 430 495 36,000  Level Moncton Center
01:12PM 50.2333 -65.7833 229° Southwest 420 483 36,000  Level Moncton Center
01:13PM 50.1667 -65.9333 235° Southwest 420 483 36,000  Level Moncton Center
01:14PM 50.1000 -66.0667 232° Southwest 430 495 36,000  Level Moncton Center
01:15PM 50.0167 -66.2167 229° Southwest 430 495 36,000  Level Moncton Center
01:16PM 49.9500 -66.3500 232° Southwest 430 495 36,000  Level Moncton Center
01:17PM 49.8500 -66.5000 224° Southwest 430 495 36,000  Level Moncton Center
01:18PM 49.7833 -66.6333 232° Southwest 430 495 36,000  Level Moncton Center
01:19PM 49.7167 -66.7833 236° Southwest 420 483 36,000  Level Moncton Center
01:20PM 49.6333 -66.9000 222° Southwest 420 483 36,000  Level Moncton Center
01:21PM 49.5667 -67.0500 236° Southwest 420 483 36,000  Level Moncton Center
01:22PM 49.4667 -67.1833 221° Southwest 420 483 36,000  Level Moncton Center
01:23PM 49.4000 -67.3333 236° Southwest 420 483 36,000  Level Moncton Center
01:24PM 49.3167 -67.4833 230° Southwest 420 483 36,000  Level Moncton Center
01:25PM 49.2500 -67.6000 229° Southwest 430 495 36,000  Level Moncton Center
01:26PM 49.1500 -67.7500 224° Southwest 430 495 36,000  Level Moncton Center
01:27PM 49.0833 -67.8667 229° Southwest 430 495 36,000  Level Moncton Center
01:28PM 49.0167 -68.0000 233° Southwest 430 495 36,000  Level Moncton Center
01:29PM 48.9333 -68.1500 230° Southwest 430 495 36,000  Level Moncton Center
01:30PM 48.8500 -68.2833 227° Southwest 430 495 36,000  Level Moncton Center
01:31PM 48.7667 -68.4167 227° Southwest 430 495 36,000  Level Moncton Center
01:32PM 48.7000 -68.5667 236° Southwest 430 495 36,000  Level Moncton Center
01:33PM 48.6000 -68.7000 221° Southwest 430 495 36,000  Level Moncton Center
01:38PM 48.1400 -69.3760 221° Southwest 437 503 36,000  Level FlightAware
01:39PM 48.0850 -69.4250 211° Southwest 437 503 36,000  Level FlightAware
01:39PM 48.0290 -69.4780 212° Southwest 36,000  Level FlightAware
01:40PM 47.9570 -69.5450 212° Southwest 439 505 36,000  Level FlightAware
01:41PM 47.8900 -69.6080 212° Southwest 438 504 36,000  Level FlightAware
01:41PM 48.1400 -69.3760 32° Northeast 36,000  Level FlightAware
01:42PM 47.8150 -69.6890 213° Southwest 435 501 36,000  Level FlightAware
01:42PM 47.7600 -69.7540 218° Southwest 437 503 36,000  Level FlightAware
01:43PM 47.6930 -69.8440 222° Southwest 434 499 36,000  Level FlightAware
01:43PM 47.6460 -69.9130 225° Southwest 432 497 36,000  Level FlightAware
01:44PM 47.5970 -69.9900 227° Southwest 432 497 36,000  Level FlightAware
01:45PM 47.5410 -70.0780 227° Southwest 430 495 36,000  Level FlightAware
01:45PM 47.4920 -70.1540 226° Southwest 429 494 36,000  Level FlightAware
01:46PM 47.4470 -70.2260 227° Southwest 430 495 36,000  Level FlightAware
01:46PM 47.3990 -70.3010 227° Southwest 428 493 36,000  Level FlightAware
01:47PM 47.3430 -70.3890 227° Southwest 428 493 36,000  Level FlightAware
01:48PM 47.2960 -70.4610 226° Southwest 428 493 36,000  Level FlightAware
01:48PM 47.2480 -70.5360 227° Southwest 429 494 36,000  Level FlightAware
01:49PM 47.2080 -70.5970 226° Southwest 430 495 36,000  Level FlightAware
01:49PM 47.1600 -70.6710 226° Southwest 427 491 36,000  Level FlightAware
01:50PM 47.1050 -70.7560 226° Southwest 427 491 36,000  Level FlightAware
01:51PM 47.0620 -70.8210 226° Southwest 427 491 36,000  Level FlightAware
01:51PM 47.0140 -70.8950 226° Southwest 425 489 36,000  Level FlightAware
01:52PM 46.9690 -70.9640 226° Southwest 424 488 36,000  Level FlightAware
01:52PM 46.9240 -71.0320 226° Southwest 422 486 36,000  Level FlightAware
01:53PM 46.8750 -71.1070 226° Southwest 421 484 36,000  Level FlightAware
01:54PM 46.8260 -71.1800 226° Southwest 417 480 36,000  Level FlightAware
01:54PM 46.7790 -71.2500 226° Southwest 415 478 36,000  Level FlightAware
01:55PM 46.7330 -71.3210 227° Southwest 415 478 36,000  Level FlightAware
01:55PM 46.6810 -71.3980 225° Southwest 414 476 36,000  Level FlightAware
01:56PM 46.6400 -71.4590 226° Southwest 414 476 36,000  Level FlightAware
01:56PM 46.5860 -71.5400 226° Southwest 413 475 36,000  Level FlightAware
01:57PM 46.5430 -71.6040 226° Southwest 412 474 36,000  Level FlightAware
01:58PM 46.4950 -71.6740 225° Southwest 411 473 36,000  Level FlightAware
01:58PM 46.4460 -71.7470 226° Southwest 410 472 36,000 -360 Level FlightAware
01:59PM 46.4010 -71.8130 225° Southwest 406 467 35,600 -840 Descending FlightAware
01:59PM 46.3600 -71.8740 226° Southwest 405 466 35,100 -1,440 Descending FlightAware
02:00PM 46.3140 -71.9420 226° Southwest 397 457 34,000 -2,640 Descending FlightAware
02:01PM 46.2730 -72.0020 225° Southwest 404 465 32,000 -3,780 Descending FlightAware
02:01PM 46.2160 -72.0850 225° Southwest 414 476 29,400 -3,600 Descending FlightAware
02:02PM 46.1680 -72.1550 225° Southwest 413 475 27,500 -3,000 Descending FlightAware
02:02PM 46.1240 -72.2180 225° Southwest 407 468 26,000 -2,880 Descending FlightAware
02:03PM 46.0780 -72.2850 225° Southwest 401 461 24,300 -2,760 Descending FlightAware
02:03PM 46.0360 -72.3460 225° Southwest 396 456 22,900 -2,760 Descending FlightAware
02:04PM 45.9840 -72.4200 225° Southwest 391 450 21,000 -2,700 Descending FlightAware
02:05PM 45.9440 -72.4780 225° Southwest 387 445 19,700 -2,580 Descending FlightAware
02:05PM 45.8990 -72.5440 226° Southwest 382 440 18,100 -2,700 Descending FlightAware
02:06PM 45.8530 -72.6090 225° Southwest 378 435 16,500 -2,580 Descending FlightAware
02:06PM 45.8160 -72.6610 224° Southwest 374 430 15,300 -2,460 Descending FlightAware
02:07PM 45.7730 -72.7230 225° Southwest 370 426 13,800 -2,580 Descending FlightAware
02:07PM 45.7560 -72.7530 231° Southwest 366 421 13,100 -2,460 Descending FlightAware
02:08PM 45.7410 -72.8150 251° West 356 410 12,000 -2,160 Descending FlightAware
02:08PM 45.7320 -72.8930 261° West 345 397 10,900 -1,320 Descending FlightAware
02:09PM 45.7240 -72.9710 262° West 314 361 10,500 -960 Descending FlightAware
02:09PM 45.7180 -73.0310 262° West 298 343 9,900 -1,200 Descending FlightAware
02:10PM 45.7160 -73.0540 263° West 289 333 9,700 -1,140 Descending FlightAware
02:10PM 45.7120 -73.0920 261° West 277 319 9,300 -1,140 Descending FlightAware
02:10PM 45.7070 -73.1330 260° West 265 305 8,900 -1,140 Descending FlightAware
02:10PM 45.7030 -73.1580 257° West 261 300 8,600 -1,500 Descending FlightAware
02:11PM 45.6950 -73.2010 255° West 259 298 7,900 -1,620 Descending FlightAware
02:11PM 45.6900 -73.2340 258° West 259 298 7,400 -1,380 Descending FlightAware
02:12PM 45.6830 -73.2750 256° West 257 296 6,900 -1,260 Descending FlightAware
02:12PM 45.6790 -73.3000 257° West 256 295 6,500 -1,500 Descending FlightAware
02:12PM 45.6710 -73.3430 255° West 254 292 5,900 -1,200 Descending FlightAware
02:13PM 45.6670 -73.3720 259° West 249 287 5,700 -1,020 Descending FlightAware
02:13PM 45.6600 -73.4100 255° West 248 285 5,200 -1,260 Descending FlightAware
02:13PM 45.6550 -73.4410 257° West 244 281 4,800 -1,140 Descending FlightAware
02:14PM 45.6500 -73.4690 256° West 242 278 4,500 -900 Descending FlightAware
02:14PM 45.6440 -73.5040 256° West 241 277 4,200 -900 Descending FlightAware
02:14PM 45.6370 -73.5290 248° West 236 272 3,900 -840 Descending FlightAware
02:14PM 45.6340 -73.5340 229° Southwest 234 269 3,900 -900 Level FlightAware
02:15PM 45.6220 -73.5510 225° Southwest 223 257 3,600 -840 Descending FlightAware
02:15PM 45.6080 -73.5720 226° Southwest 209 241 3,400 -780 Descending FlightAware
02:15PM 45.5940 -73.5910 224° Southwest 203 234 3,100 -1,080 Descending FlightAware
02:16PM 45.5790 -73.6100 222° Southwest 205 236 2,700 -1,140 Descending FlightAware
02:16PM 45.5630 -73.6310 223° Southwest 207 238 2,300 -1,140 Descending FlightAware
02:16PM 45.5500 -73.6490 224° Southwest 188 216 1,900 -1,140 Descending FlightAware
02:17PM 45.5400 -73.6620 222° Southwest 171 197 1,600 -900 Descending FlightAware
02:17PM 45.5260 -73.6800 222° Southwest 156 180 1,300 -840 Descending FlightAware
02:17PM 45.5160 -73.6930 222° Southwest 145 167 1,000 -900 Descending FlightAware
02:18PM 45.5090 -73.7030 225° Southwest 141 162 800 -720 Descending FlightAware
02:18PM 45.4940 -73.7220 222° Southwest 140 161 500 -660 Descending FlightAware
02:18PM 45.4880 -73.7300 223° Southwest 143 165 300 -840 Descending FlightAware
02:19PM 45.4740 -73.7480 222° Southwest 80 92 -600 Descending FlightAware